Campo (448) Station Data

Red Flag Warning: No
Fire Weather Zone: 258
SDGE Region: Mountain Empire
Lat/Lon: 32.599/-116.493

Observations

Time Wind Speed/Gust Temp(F) RH Fuel Moist Fuel Temp(F) Dewpt(F) Tmax(F) Tmin(F) Accum Precip 10-min Precip SL Press(mb)
4/30 12:00am 38 10 G 13 46° 31% - - 17° 73.6° 46.1° - - -
4/29 11:50pm 42 11 G 14 47° 31% - - 18° 73.6° 46.2° - - -
4/29 11:40pm 39 7 G 12 47° 32% - - 18° 73.6° 46.2° - - -
4/29 11:30pm 22 7 G 11 47° 31% - - 18° 73.6° 46.6° - - -
4/29 11:20pm 22 7 G 10 49° 29% - - 18° 73.6° 47.4° - - -
4/29 11:10pm 29 9 G 12 48° 29% - - 18° 73.6° 47.4° - - -
4/29 11:00pm 21 8 G 11 48° 29% - - 18° 73.6° 47.4° - - -
4/29 10:50pm 24 8 G 11 48° 30% - - 18° 73.6° 47.4° - - -
4/29 10:40pm 26 7 G 11 48° 31% - - 19° 73.6° 47.4° - - -
4/29 10:30pm 26 7 G 11 49° 30% - - 19° 73.6° 47.4° - - -
4/29 10:20pm 21 7 G 10 50° 28% - - 18° 73.6° 47.4° - - -
4/29 10:10pm 27 6 G 7 50° 28% - - 19° 73.6° 47.4° - - -
4/29 10:00pm 32 5 G 8 50° 29% - - 19° 73.6° 47.4° - - -
4/29 9:50pm 38 4 G 7 51° 29% - - 20° 73.6° 47.4° - - -
4/29 9:40pm 32 2 G 6 51° 29% - - 20° 73.6° 47.4° - - -
4/29 9:30pm 22 5 G 7 52° 29% - - 20° 73.6° 47.4° - - -
4/29 9:20pm 22 6 G 8 52° 28% - - 20° 73.6° 47.4° - - -
4/29 9:10pm 33 3 G 5 54° 26% - - 20° 73.6° 47.4° - - -
4/29 9:00pm 38 2 G 5 54° 26% - - 20° 73.6° 47.4° - - -
4/29 8:50pm 39 3 G 5 54° 27% - - 20° 73.6° 47.4° - - -
4/29 8:40pm 28 3 G 4 55° 26% - - 21° 73.6° 47.4° - - -
4/29 8:30pm 32 2 G 4 57° 23% - - 20° 73.6° 47.4° - - -
4/29 8:20pm 49 2 G 5 60° 20% - - 19° 73.6° 47.4° - - -
4/29 8:10pm 42 3 G 5 61° 19% - - 18° 73.6° 47.4° - - -
4/29 8:00pm 75 1 G 3 63° 17% - - 17° 73.6° 47.4° - - -
4/29 7:50pm 220 1 G 6 64° 16% - - 17° 73.6° 47.4° - - -
4/29 7:40pm 158 3 G 8 65° 15% - - 16° 73.6° 47.4° - - -
4/29 7:30pm 184 1 G 3 67° 14% - - 16° 73.6° 47.4° - - -
4/29 7:20pm 295 1 G 4 68° 14% - - 16° 73.6° 47.4° - - -
4/29 7:10pm 339 1 G 3 69° 13% - - 17° 73.6° 47.4° - - -
4/29 7:00pm 354 5 G 12 69° 12% - - 14° 73.6° 47.4° - - -
4/29 6:50pm 27 6 G 9 71° 9% - - 10° 73.6° 47.4° - - -
4/29 6:40pm 40 9 G 13 71° 9% - - 73.6° 47.4° - - -
4/29 6:30pm 41 8 G 15 72° 9% - - 10° 73.6° 47.4° - - -
4/29 6:20pm 43 9 G 13 72° 9% - - 73.6° 47.4° - - -
4/29 6:10pm 43 11 G 17 72° 9% - - 73.6° 47.4° - - -
4/29 6:00pm 37 10 G 17 72° 9% - - 73.6° 47.4° - - -
4/29 5:50pm 42 13 G 19 72° 8% - - 73.6° 47.4° - - -
4/29 5:40pm 50 13 G 20 72° 9% - - 73.6° 47.4° - - -
4/29 5:30pm 33 13 G 21 72° 9% - - 73.6° 47.4° - - -
4/29 5:20pm 51 13 G 20 72° 9% - - 73.6° 47.4° - - -
4/29 5:10pm 43 12 G 20 73° 9% - - 73.6° 47.4° - - -
4/29 5:00pm 44 12 G 26 73° 9% - - 10° 73.6° 47.4° - - -
4/29 4:50pm 41 15 G 21 72° 8% - - 73.2° 47.4° - - -
4/29 4:40pm 48 14 G 21 72° 9% - - 73.2° 47.4° - - -
4/29 4:30pm 41 15 G 24 73° 8% - - 73.2° 47.4° - - -
4/29 4:20pm 50 13 G 21 72° 9% - - 10° 72.8° 47.4° - - -
4/29 4:10pm 43 14 G 25 72° 9% - - 72.3° 47.4° - - -
4/29 4:00pm 39 13 G 19 72° 9% - - 10° 72.3° 47.4° - - -
4/29 3:50pm 35 13 G 22 72° 9% - - 10° 72.3° 47.4° - - -
4/29 3:40pm 38 15 G 25 71° 9% - - 10° 72.1° 47.4° - - -
4/29 3:30pm 33 12 G 20 71° 9% - - 10° 72.1° 47.4° - - -
4/29 3:20pm 33 14 G 21 71° 9% - - 10° 72.1° 47.4° - - -
4/29 3:10pm 35 13 G 22 71° 10% - - 12° 72.1° 47.4° - - -
4/29 3:00pm 44 16 G 25 71° 10% - - 12° 72.1° 47.4° - - -
4/29 2:50pm 26 13 G 26 71° 10% - - 12° 72.1° 47.4° - - -
4/29 2:40pm 27 13 G 23 71° 10% - - 12° 71.4° 47.4° - - -
4/29 2:30pm 41 14 G 23 70° 10% - - 11° 70.9° 47.4° - - -
4/29 2:20pm 34 15 G 23 70° 10% - - 11° 70.9° 47.4° - - -
4/29 2:10pm 40 14 G 23 69° 11% - - 12° 70.1° 47.4° - - -
4/29 2:00pm 43 16 G 24 69° 11% - - 12° 69.9° 47.4° - - -
4/29 1:50pm 43 15 G 23 69° 10% - - 11° 69.9° 47.4° - - -
4/29 1:40pm 36 17 G 27 69° 11% - - 12° 69.9° 47.4° - - -
4/29 1:30pm 41 16 G 28 69° 11% - - 12° 69.9° 47.4° - - -
4/29 1:20pm 38 16 G 28 68° 11% - - 12° 69.5° 47.4° - - -
4/29 1:10pm 34 13 G 24 69° 11% - - 13° 69.3° 47.4° - - -
4/29 1:00pm 30 15 G 23 68° 11% - - 12° 69° 47.4° - - -
4/29 12:50pm 28 15 G 28 68° 11% - - 12° 68.3° 47.4° - - -
4/29 12:40pm 37 19 G 30 67° 11% - - 11° 68.1° 47.4° - - -
4/29 12:30pm 47 19 G 31 67° 11% - - 11° 68.1° 47.4° - - -
4/29 12:20pm 44 20 G 30 67° 11% - - 12° 68.1° 47.4° - - -
4/29 12:10pm 26 18 G 29 67° 12% - - 12° 67.7° 47.4° - - -
4/29 12:00pm 40 18 G 31 67° 11% - - 12° 67.7° 47.4° - - -
4/29 11:50am 43 20 G 31 66° 11% - - 11° 67° 47.4° - - -
4/29 11:40am 49 21 G 30 66° 12% - - 11° 67° 47.4° - - -
4/29 11:30am 40 18 G 30 66° 12% - - 11° 67° 47.4° - - -
4/29 11:20am 27 19 G 29 66° 11% - - 11° 67° 47.4° - - -
4/29 11:10am 37 19 G 29 66° 11% - - 11° 66.8° 47.4° - - -
4/29 11:00am 42 16 G 26 66° 12% - - 11° 66.8° 47.4° - - -
4/29 10:50am 33 17 G 29 66° 12% - - 11° 66.4° 47.4° - - -
4/29 10:40am 35 19 G 29 65° 11% - - 10° 66.2° 47.4° - - -
4/29 10:30am 34 16 G 28 65° 11% - - 10° 66.2° 47.4° - - -
4/29 10:20am 43 18 G 27 65° 12% - - 10° 65.5° 47.4° - - -
4/29 10:10am 47 17 G 27 65° 12% - - 11° 65.5° 47.4° - - -
4/29 10:00am 43 18 G 31 64° 12% - - 10° 64.5° 47.4° - - -
4/29 9:50am 38 19 G 29 64° 12% - - 10° 64° 47.4° - - -
4/29 9:40am 39 19 G 33 63° 12% - - 63.6° 47.4° - - -
4/29 9:30am 43 22 G 34 63° 12% - - 62.8° 47.4° - - -
4/29 9:20am 33 22 G 36 62° 12% - - 62.8° 47.4° - - -
4/29 9:10am 38 23 G 34 62° 12% - - 62.8° 47.4° - - -
4/29 9:00am 40 20 G 30 62° 13% - - 10° 62.8° 47.4° - - -
4/29 8:50am 35 21 G 37 62° 12% - - 62.7° 47.4° - - -
4/29 8:40am 37 23 G 34 61° 12% - - 62.7° 47.4° - - -
4/29 8:30am 40 23 G 36 61° 12% - - 62.7° 47.4° - - -
4/29 8:20am 40 22 G 37 61° 13% - - 62.7° 47.4° - - -
4/29 8:10am 33 17 G 27 61° 13% - - 62.7° 47.4° - - -
4/29 8:00am 38 19 G 33 60° 13% - - 62.7° 47.4° - - -
4/29 7:50am 42 19 G 33 60° 13% - - 62.7° 47.4° - - -
4/29 7:40am 38 18 G 29 60° 13% - - 62.7° 47.4° - - -
4/29 7:30am 38 16 G 26 59° 13% - - 62.7° 47.4° - - -
4/29 7:20am 34 13 G 28 59° 13% - - 62.7° 47.4° - - -
4/29 7:10am 27 10 G 22 59° 13% - - 62.7° 47.4° - - -
4/29 7:00am 26 10 G 16 58° 13% - - 62.7° 47.4° - - -
4/29 6:50am 22 10 G 19 58° 13% - - 62.7° 47.4° - - -
4/29 6:40am 27 9 G 19 57° 13% - - 62.7° 47.4° - - -
4/29 6:30am 39 9 G 16 57° 13% - - 62.7° 47.4° - - -
4/29 6:20am 30 12 G 21 57° 13% - - 62.7° 47.4° - - -
4/29 6:10am 35 11 G 23 57° 13% - - 62.7° 47.4° - - -
4/29 6:00am 33 9 G 17 57° 13% - - 62.7° 47.4° - - -
4/29 5:50am 34 12 G 22 58° 13% - - 62.7° 47.4° - - -
4/29 5:40am 37 10 G 19 58° 13% - - 62.7° 47.4° - - -
4/29 5:30am 40 9 G 18 58° 13% - - 62.7° 47.4° - - -
4/29 5:20am 38 10 G 17 58° 13% - - 62.7° 47.4° - - -
4/29 5:10am 33 7 G 15 58° 13% - - 62.7° 47.4° - - -
4/29 5:00am 31 6 G 11 58° 13% - - 62.7° 47.4° - - -
4/29 4:50am 33 7 G 16 58° 13% - - 62.7° 47.4° - - -
4/29 4:40am 33 7 G 13 58° 13% - - 62.7° 47.4° - - -
4/29 4:30am 33 8 G 14 58° 13% - - 62.7° 47.4° - - -
4/29 4:20am 36 10 G 20 59° 13% - - 62.7° 47.4° - - -
4/29 4:10am 34 9 G 16 59° 13% - - 62.7° 47.4° - - -
4/29 4:00am 37 9 G 16 59° 13% - - 62.7° 47.4° - - -
4/29 3:50am 36 10 G 18 59° 13% - - 62.7° 47.4° - - -
4/29 3:40am 36 10 G 17 60° 13% - - 62.7° 47.4° - - -
4/29 3:30am 34 10 G 20 60° 13% - - 62.7° 47.4° - - -
4/29 3:20am 36 9 G 16 60° 13% - - 62.7° 47.4° - - -
4/29 3:10am 36 11 G 19 60° 13% - - 62.7° 47.4° - - -
4/29 3:00am 39 12 G 24 61° 12% - - 62.7° 47.4° - - -
4/29 2:50am 41 12 G 19 61° 12% - - 62.7° 47.4° - - -
4/29 2:40am 43 12 G 26 61° 12% - - 62.7° 47.4° - - -
4/29 2:30am 45 14 G 25 61° 12% - - 62.7° 47.4° - - -
4/29 2:20am 47 13 G 20 62° 12% - - 62.7° 47.4° - - -
4/29 2:10am 44 12 G 23 61° 12% - - 62.7° 47.4° - - -
4/29 2:00am 50 12 G 20 62° 12% - - 62.7° 47.4° - - -
4/29 1:50am 45 14 G 25 62° 12% - - 62.7° 47.4° - - -
4/29 1:40am 46 11 G 21 61° 13% - - 11° 62.1° 47.4° - - -
4/29 1:30am 40 9 G 17 61° 14% - - 11° 61.3° 47.4° - - -
4/29 1:20am 35 7 G 13 60° 14% - - 11° 60.6° 47.4° - - -
4/29 1:10am 38 9 G 18 59° 16% - - 13° 60.5° 47.4° - - -
4/29 1:00am 32 5 G 13 54° 27% - - 21° 55.2° 47.4° - - -
4/29 12:50am 53 2 G 5 51° 36% - - 25° 52.6° 47.4° - - -
4/29 12:40am 41 3 G 5 51° 40% - - 28° 52.1° 47.4° - - -
4/29 12:30am 37 2 G 5 48° 57% - - 33° 49° 47.4° - - -
4/29 12:20am 33 3 G 5 48° 60% - - 35° 49° 47.4° - - -
4/29 12:10am 29 3 G 7 48° 64% - - 36° 48.3° 47.4° - - -
4/29 12:00am 32 3 G 6 48° 66% - - 37° 73.9° 43.8° - - -
4/28 11:50pm 24 3 G 5 48° 67% - - 37° 73.9° 43.8° - - -
4/28 11:40pm 21 3 G 5 48° 66% - - 38° 73.9° 43.8° - - -
4/28 11:30pm 27 4 G 7 49° 64% - - 38° 73.9° 43.8° - - -
4/28 11:20pm 29 5 G 7 50° 62% - - 38° 73.9° 43.8° - - -
4/28 11:10pm 39 5 G 6 51° 61% - - 38° 73.9° 43.8° - - -
4/28 11:00pm 45 6 G 9 52° 59% - - 38° 73.9° 43.8° - - -
4/28 10:50pm 48 8 G 10 52° 58% - - 38° 73.9° 43.8° - - -
4/28 10:40pm 47 6 G 9 53° 57% - - 38° 73.9° 43.8° - - -
4/28 10:30pm 52 5 G 7 53° 58% - - 38° 73.9° 43.8° - - -
4/28 10:20pm 42 5 G 6 52° 61% - - 39° 73.9° 43.8° - - -
4/28 10:10pm 39 4 G 6 53° 60% - - 40° 73.9° 43.8° - - -
4/28 10:00pm 41 3 G 5 54° 60% - - 40° 73.9° 43.8° - - -
4/28 9:50pm 33 4 G 6 54° 60% - - 40° 73.9° 43.8° - - -
4/28 9:40pm 82 5 G 8 54° 59% - - 40° 73.9° 43.8° - - -
4/28 9:30pm 35 2 G 4 53° 60% - - 40° 73.9° 43.8° - - -
4/28 9:20pm 26 3 G 4 54° 57% - - 39° 73.9° 43.8° - - -
4/28 9:10pm 10 1 G 4 56° 53% - - 40° 73.9° 43.8° - - -
4/28 9:00pm 197 0 G 2 58° 51% - - 40° 73.9° 43.8° - - -
4/28 8:50pm 150 2 G 5 58° 51% - - 40° 73.9° 43.8° - - -
4/28 8:40pm 155 2 G 6 58° 50% - - 40° 73.9° 43.8° - - -
4/28 8:30pm 147 3 G 7 59° 47% - - 39° 73.9° 43.8° - - -
4/28 8:20pm 271 1 G 6 60° 45% - - 39° 73.9° 43.8° - - -
4/28 8:10pm 115 1 G 3 60° 46% - - 39° 73.9° 43.8° - - -
4/28 8:00pm 230 1 G 6 60° 45% - - 39° 73.9° 43.8° - - -
4/28 7:50pm 206 6 G 10 61° 45% - - 39° 73.9° 43.8° - - -
4/28 7:40pm 208 8 G 11 61° 45% - - 40° 73.9° 43.8° - - -
4/28 7:30pm 208 6 G 11 61° 45% - - 40° 73.9° 43.8° - - -
4/28 7:20pm 214 5 G 11 62° 43% - - 40° 73.9° 43.8° - - -
4/28 7:10pm 216 6 G 12 63° 42% - - 39° 73.9° 43.8° - - -
4/28 7:00pm 221 6 G 11 63° 40% - - 38° 73.9° 43.8° - - -
4/28 6:50pm 225 5 G 13 64° 38% - - 37° 73.9° 43.8° - - -
4/28 6:40pm 224 7 G 15 64° 37% - - 37° 73.9° 43.8° - - -
4/28 6:30pm 225 9 G 15 65° 38% - - 39° 73.9° 43.8° - - -
4/28 6:20pm 217 9 G 16 65° 39% - - 40° 73.9° 43.8° - - -
4/28 6:10pm 217 9 G 16 66° 39% - - 40° 73.9° 43.8° - - -
4/28 6:00pm 221 7 G 12 67° 39% - - 41° 73.9° 43.8° - - -